createdAt,value
2018-06-10T00:00:30.565Z,39.07
2018-06-10T00:02:58.013Z,38.67
2018-06-10T00:05:25.557Z,37.70
2018-06-10T00:07:52.954Z,36.83
2018-06-10T00:10:20.321Z,31.33
2018-06-10T00:12:47.765Z,40.43
2018-06-10T00:15:15.900Z,26.73
2018-06-10T00:17:43.262Z,41.63
2018-06-10T00:20:10.693Z,43.13
2018-06-10T00:22:38.123Z,29.20
2018-06-10T00:25:06.031Z,29.80
2018-06-10T00:27:34.256Z,39.30
2018-06-10T00:30:01.676Z,30.93
2018-06-10T00:32:29.037Z,43.57
2018-06-10T00:34:56.543Z,31.87
2018-06-10T00:37:23.996Z,38.00
2018-06-10T00:39:51.610Z,30.00
2018-06-10T00:42:19.330Z,26.03
2018-06-10T00:44:46.831Z,31.93
2018-06-10T00:47:14.192Z,32.53
2018-06-10T00:49:41.820Z,36.20
2018-06-10T00:52:09.345Z,28.07
2018-06-10T00:54:37.202Z,33.00
2018-06-10T00:57:04.612Z,34.63
2018-06-10T00:59:32.133Z,31.10
2018-06-10T01:01:59.761Z,28.93
2018-06-10T01:04:27.191Z,31.50
2018-06-10T01:06:54.586Z,34.43
2018-06-10T01:09:22.197Z,34.93
2018-06-10T01:11:49.745Z,34.23
2018-06-10T01:14:17.165Z,34.40
2018-06-10T01:16:44.602Z,37.47
2018-06-10T01:19:12.079Z,27.53
2018-06-10T01:21:39.592Z,33.73
2018-06-10T01:24:06.977Z,37.93
2018-06-10T01:26:40.039Z,36.90
2018-06-10T01:29:07.457Z,38.70
2018-06-10T01:31:34.874Z,27.53
2018-06-10T01:34:02.361Z,35.17
2018-06-10T01:36:29.765Z,33.90
2018-06-10T01:38:57.309Z,32.07
2018-06-10T01:41:24.664Z,26.27
2018-06-10T01:43:52.082Z,33.70
2018-06-10T01:46:19.529Z,25.63
2018-06-10T01:48:46.979Z,39.27
2018-06-10T01:51:14.532Z,30.07
2018-06-10T01:53:42.039Z,36.10
2018-06-10T01:56:09.445Z,31.13
2018-06-10T01:58:36.899Z,39.53
2018-06-10T02:01:04.295Z,32.17
2018-06-10T02:03:31.693Z,42.33
2018-06-10T02:05:59.135Z,27.33
2018-06-10T02:08:26.517Z,35.50
2018-06-10T02:10:53.971Z,35.10
2018-06-10T02:13:21.342Z,38.87
2018-06-10T02:15:48.778Z,27.00
2018-06-10T02:18:16.211Z,35.00
2018-06-10T02:20:44.206Z,31.63
2018-06-10T02:23:11.578Z,34.53
2018-06-10T02:25:38.933Z,30.80
2018-06-10T02:28:06.352Z,32.97
2018-06-10T02:30:33.736Z,34.83
2018-06-10T02:33:02.075Z,32.53
2018-06-10T02:35:29.571Z,35.23
2018-06-10T02:37:57.109Z,49.43
2018-06-10T02:40:24.475Z,36.07
2018-06-10T02:42:51.990Z,46.73
2018-06-10T02:45:19.386Z,36.90
2018-06-10T02:47:46.752Z,42.57
2018-06-10T02:50:14.169Z,37.03
2018-06-10T02:52:42.356Z,47.80
2018-06-10T02:55:10.596Z,51.13
2018-06-10T02:57:37.993Z,47.97
2018-06-10T03:00:05.604Z,58.97
2018-06-10T03:02:33.013Z,60.23
2018-06-10T03:05:00.433Z,44.83
2018-06-10T03:07:27.998Z,44.80
2018-06-10T03:09:55.365Z,42.10
2018-06-10T03:12:22.815Z,49.27
2018-06-10T03:14:50.183Z,35.53
2018-06-10T03:17:17.604Z,41.30
2018-06-10T03:19:45.007Z,51.57
2018-06-10T03:22:13.039Z,45.97
2018-06-10T03:24:40.573Z,43.93
2018-06-10T03:27:07.992Z,43.43
2018-06-10T03:29:35.386Z,43.27
2018-06-10T03:32:02.833Z,48.70
2018-06-10T03:34:30.213Z,37.50
2018-06-10T03:36:57.614Z,44.73
2018-06-10T03:39:25.045Z,35.73
2018-06-10T03:41:52.426Z,45.40
2018-06-10T03:44:19.944Z,32.23
2018-06-10T03:46:47.305Z,31.17
2018-06-10T03:49:14.769Z,32.63
2018-06-10T03:51:42.173Z,33.03
2018-06-10T03:54:09.561Z,30.70
2018-06-10T03:56:36.931Z,35.90
2018-06-10T03:59:05.092Z,33.23
2018-06-10T04:01:32.484Z,41.47
2018-06-10T04:04:00.065Z,31.77
2018-06-10T04:06:27.425Z,44.17
2018-06-10T04:08:54.901Z,33.97
2018-06-10T04:11:22.279Z,30.70
2018-06-10T04:13:49.643Z,41.93
2018-06-10T04:16:17.089Z,31.50
2018-06-10T04:18:45.151Z,34.83
2018-06-10T04:21:12.564Z,32.50
2018-06-10T04:23:40.114Z,32.70
2018-06-10T04:26:07.534Z,31.47
2018-06-10T04:28:35.018Z,32.80
2018-06-10T04:31:02.407Z,31.87
2018-06-10T04:33:29.775Z,36.70
2018-06-10T04:35:57.166Z,31.30
2018-06-10T04:38:24.514Z,29.10
2018-06-10T04:40:52.020Z,33.43
2018-06-10T04:43:19.384Z,30.47
2018-06-10T04:45:46.870Z,28.67
2018-06-10T04:48:14.266Z,26.37
2018-06-10T04:50:41.717Z,27.27
2018-06-10T17:41:39.804Z,6.30
2018-06-10T17:44:07.509Z,6.67
2018-06-10T17:46:34.965Z,7.07
2018-06-10T17:49:02.417Z,9.87
2018-06-10T17:51:29.843Z,7.57
2018-06-10T17:53:57.366Z,7.13
2018-06-10T17:56:24.777Z,7.00
2018-06-10T17:58:52.281Z,6.07
2018-06-10T18:01:19.730Z,8.77
2018-06-10T18:03:47.205Z,9.63
2018-06-10T18:06:14.816Z,6.03
2018-06-10T18:08:42.825Z,9.77
2018-06-10T18:11:10.320Z,7.37
2018-06-10T18:13:37.944Z,6.53
2018-06-10T18:16:06.380Z,5.93
2018-06-10T18:18:33.818Z,7.63
2018-06-10T18:21:01.889Z,7.30
2018-06-10T18:23:29.343Z,6.57
2018-06-10T18:25:56.917Z,10.23
2018-06-10T18:28:24.391Z,8.90
2018-06-10T18:30:51.853Z,8.20
2018-06-10T18:33:19.344Z,8.97
2018-06-10T18:35:46.848Z,7.87
2018-06-10T18:38:14.292Z,6.03
2018-06-10T18:40:41.868Z,8.27
2018-06-10T18:43:09.898Z,7.27
2018-06-10T18:45:37.309Z,7.47
2018-06-10T18:48:05.055Z,7.30
2018-06-10T18:50:32.535Z,6.80
2018-06-10T18:53:00.191Z,7.43
2018-06-10T18:55:27.636Z,6.93
2018-06-10T18:57:56.419Z,7.33
2018-06-10T19:00:23.861Z,7.03
2018-06-10T19:02:51.354Z,7.20
2018-06-10T19:05:18.824Z,6.20
2018-06-10T19:07:46.396Z,6.93
2018-06-10T19:10:13.950Z,6.77
2018-06-10T19:12:41.630Z,8.47
2018-06-10T19:15:09.659Z,7.53
2018-06-10T19:17:37.056Z,5.27
2018-06-10T19:20:04.748Z,5.80
2018-06-10T19:22:32.299Z,5.73
2018-06-10T19:24:59.763Z,5.90
2018-06-10T19:27:27.844Z,7.27
2018-06-10T19:29:55.394Z,7.60
2018-06-10T19:32:22.936Z,5.90
2018-06-10T19:34:50.387Z,6.30
2018-06-10T19:37:17.950Z,9.27
2018-06-10T19:39:45.467Z,5.87
2018-06-10T19:42:13.003Z,8.47
2018-06-10T19:44:40.982Z,9.27
2018-06-10T19:47:08.501Z,6.37
2018-06-10T19:49:35.977Z,7.10
2018-06-10T19:52:03.470Z,8.77
2018-06-10T19:54:30.960Z,9.70
2018-06-10T19:56:58.518Z,6.67
2018-06-10T19:59:26.222Z,8.83
2018-06-10T20:01:53.646Z,7.73
2018-06-10T20:04:21.040Z,7.50
2018-06-10T20:06:48.558Z,10.30
2018-06-10T20:09:16.115Z,8.47
2018-06-10T20:11:43.568Z,10.50
2018-06-10T20:14:11.065Z,7.57
2018-06-10T20:16:38.522Z,7.10
2018-06-10T20:19:05.969Z,9.10
2018-06-10T20:21:33.603Z,9.83
2018-06-10T20:24:01.880Z,7.63
2018-06-10T20:26:29.369Z,7.83
2018-06-10T20:28:56.824Z,8.03
2018-06-10T20:31:24.287Z,9.20
2018-06-10T20:33:51.889Z,8.07
2018-06-10T20:36:20.039Z,9.83
2018-06-10T20:38:47.467Z,9.53
2018-06-10T20:41:14.993Z,8.17
2018-06-10T20:43:42.578Z,10.03
2018-06-10T20:46:10.162Z,10.07
2018-06-10T20:48:37.741Z,7.30
2018-06-10T20:51:05.144Z,9.53
2018-06-10T20:53:32.667Z,9.93
2018-06-10T20:56:00.279Z,11.40
2018-06-10T20:58:27.741Z,11.47
2018-06-10T21:00:55.290Z,9.67
2018-06-10T21:03:22.734Z,10.37
2018-06-10T21:05:50.307Z,7.70
2018-06-10T21:08:17.838Z,10.03
2018-06-10T21:10:45.308Z,8.93
2018-06-10T21:13:12.768Z,9.40
2018-06-10T21:15:40.261Z,8.80
2018-06-10T21:18:07.697Z,8.73
2018-06-10T21:20:35.179Z,11.67
2018-06-10T21:23:02.690Z,10.47
2018-06-10T21:25:30.337Z,9.63
2018-06-10T21:27:57.751Z,9.60
2018-06-10T21:30:25.219Z,11.23
2018-06-10T21:32:52.711Z,8.97
2018-06-10T21:35:20.122Z,11.33
2018-06-10T21:37:47.730Z,10.23
2018-06-10T21:40:15.358Z,10.77
2018-06-10T21:42:42.859Z,11.03
2018-06-10T21:45:10.916Z,8.50
2018-06-10T21:47:38.399Z,15.20
2018-06-10T21:50:06.024Z,12.13
2018-06-10T21:52:33.550Z,8.73
2018-06-10T21:55:01.003Z,9.00
2018-06-10T21:57:28.525Z,12.70
2018-06-10T21:59:56.065Z,11.07
2018-06-10T22:02:23.645Z,12.00
2018-06-10T22:04:51.027Z,9.43
2018-06-10T22:07:18.527Z,11.30
2018-06-10T22:09:46.153Z,9.60
2018-06-10T22:12:13.560Z,11.27
2018-06-10T22:14:40.957Z,11.87
2018-06-10T22:17:08.375Z,12.73
2018-06-10T22:19:35.933Z,10.20
2018-06-10T22:22:03.745Z,9.07
2018-06-10T22:24:31.194Z,12.03
2018-06-10T22:26:58.640Z,11.90
2018-06-10T22:29:26.228Z,10.03
2018-06-10T22:31:53.645Z,10.87
2018-06-10T22:34:21.053Z,10.03
2018-06-10T22:36:48.614Z,12.67
2018-06-10T22:39:16.213Z,9.70
2018-06-10T22:41:43.906Z,8.53
2018-06-10T22:44:11.336Z,9.07
2018-06-10T22:46:38.901Z,10.23
2018-06-10T22:49:06.371Z,8.43
2018-06-10T22:51:33.985Z,8.80
2018-06-10T22:54:12.645Z,9.47
2018-06-10T22:56:40.053Z,8.83
2018-06-10T22:59:07.451Z,8.47
2018-06-10T23:01:34.913Z,8.93
2018-06-10T23:04:02.337Z,10.03
2018-06-10T23:06:29.951Z,8.67
2018-06-10T23:08:57.428Z,7.93
2018-06-10T23:11:25.550Z,8.63
2018-06-10T23:13:52.967Z,11.77
2018-06-10T23:16:20.473Z,8.53
2018-06-10T23:18:47.912Z,8.03
2018-06-10T23:21:15.482Z,7.13
2018-06-10T23:23:43.916Z,8.80
2018-06-10T23:26:11.316Z,7.63
2018-06-10T23:28:38.754Z,8.30
2018-06-10T23:31:06.314Z,7.77
2018-06-10T23:33:33.857Z,7.30
2018-06-10T23:36:01.339Z,7.80
2018-06-10T23:38:28.794Z,8.10
2018-06-10T23:40:56.224Z,8.50
2018-06-10T23:43:23.790Z,9.77
2018-06-10T23:45:51.321Z,8.27
2018-06-10T23:48:18.677Z,9.57
2018-06-10T23:50:46.228Z,10.03
2018-06-10T23:53:13.720Z,7.87
2018-06-10T23:55:41.101Z,9.07
2018-06-10T23:58:08.628Z,7.53
